Time;durP1;ratioP1;P1;durP2;ratioP2;P2;SDS_P1;SDS_P2;PMS_P1;PMS_P2;Temp;Humidity;BMP_temperature;BMP_pressure;BME280_temperature;BME280_humidity;BME280_pressure;Samples;Min_cycle;Max_cycle;Signal;HPM_P1;HPM_P2
2022/03/06 00:00:56;;;;;;;20.55;11.88;;;4.40;93.00;;;;;;5076869;28;20040;-57
2022/03/06 00:03:23;;;;;;;18.88;11.52;;;4.30;92.90;;;;;;5079133;28;20093;-50
2022/03/06 00:05:50;;;;;;;20.20;12.90;;;4.30;92.80;;;;;;5093394;28;20055;-50
2022/03/06 00:08:17;;;;;;;26.08;9.70;;;4.30;92.90;;;;;;5093529;28;20054;-53
2022/03/06 00:10:44;;;;;;;15.70;9.27;;;4.30;92.70;;;;;;5093683;28;20047;-55
2022/03/06 00:13:11;;;;;;;22.67;11.05;;;4.20;92.80;;;;;;5092717;28;20132;-47
2022/03/06 00:15:38;;;;;;;22.00;12.02;;;4.20;93.10;;;;;;5076971;28;20043;-48
2022/03/06 00:18:05;;;;;;;24.00;12.13;;;4.30;93.20;;;;;;5073945;28;20043;-50
2022/03/06 00:20:32;;;;;;;19.50;11.50;;;4.30;93.00;;;;;;5082929;28;20062;-51
2022/03/06 00:22:58;;;;;;;18.67;10.55;;;4.30;92.90;;;;;;5089058;28;20040;-48
2022/03/06 00:25:25;;;;;;;20.35;10.90;;;4.30;92.60;;;;;;5073711;28;20048;-47
2022/03/06 00:27:52;;;;;;;22.02;10.40;;;4.30;92.60;;;;;;5073397;28;20040;-49
2022/03/06 00:30:19;;;;;;;20.52;11.50;;;4.20;92.50;;;;;;5088213;28;20089;-48
2022/03/06 00:32:45;;;;;;;19.20;11.18;;;4.20;92.60;;;;;;5092822;28;20040;-50
2022/03/06 00:35:12;;;;;;;18.48;10.90;;;4.20;92.70;;;;;;5092797;28;20472;-48
2022/03/06 00:37:39;;;;;;;17.92;11.25;;;4.20;92.90;;;;;;5091265;28;20036;-45
2022/03/06 00:40:06;;;;;;;21.95;10.63;;;4.20;92.70;;;;;;5092597;28;20556;-47
2022/03/06 00:42:33;;;;;;;24.05;10.93;;;4.20;92.60;;;;;;5090818;28;20032;-50
2022/03/06 00:45:00;;;;;;;19.83;10.90;;;4.20;92.90;;;;;;5073838;28;20510;-48
2022/03/06 00:47:27;;;;;;;21.00;10.90;;;4.20;92.70;;;;;;5092594;28;20071;-47
2022/03/06 00:49:53;;;;;;;19.77;10.38;;;4.20;92.80;;;;;;5092373;28;20044;-45
2022/03/06 00:52:20;;;;;;;19.20;10.45;;;4.20;92.60;;;;;;5092484;28;20083;-48
2022/03/06 00:54:47;;;;;;;23.98;11.48;;;4.20;92.70;;;;;;5077997;28;20049;-53
2022/03/06 00:57:14;;;;;;;18.42;10.40;;;4.20;92.70;;;;;;5079880;28;20387;-45
2022/03/06 00:59:41;;;;;;;16.88;10.73;;;4.20;92.60;;;;;;5087740;28;20043;-51
2022/03/06 01:02:07;;;;;;;18.60;10.00;;;4.20;92.70;;;;;;5092389;28;20047;-51
2022/03/06 01:04:34;;;;;;;13.82;10.35;;;4.20;92.80;;;;;;5072954;28;20050;-50
2022/03/06 01:07:01;;;;;;;22.35;10.82;;;4.20;92.80;;;;;;5072684;28;20041;-49
2022/03/06 01:09:28;;;;;;;16.70;9.50;;;4.20;92.70;;;;;;5073068;28;20048;-50
2022/03/06 01:11:55;;;;;;;16.63;9.65;;;4.20;92.50;;;;;;5092552;28;20050;-55
2022/03/06 01:14:22;;;;;;;17.75;9.13;;;4.20;92.40;;;;;;5080639;28;20503;-53
2022/03/06 01:16:48;;;;;;;20.80;10.82;;;4.10;92.50;;;;;;5092018;28;20044;-53
2022/03/06 01:19:15;;;;;;;17.17;9.27;;;4.10;92.50;;;;;;5078157;28;20044;-55
2022/03/06 01:21:42;;;;;;;16.98;9.27;;;4.10;92.60;;;;;;5072823;28;20045;-53
2022/03/06 01:24:09;;;;;;;18.13;9.00;;;4.10;92.50;;;;;;5072867;28;20074;-51
2022/03/06 01:26:36;;;;;;;18.77;9.60;;;4.10;92.70;;;;;;5072783;28;20123;-49
2022/03/06 01:29:03;;;;;;;15.77;9.20;;;4.10;92.40;;;;;;5079367;28;20048;-55
2022/03/06 01:31:29;;;;;;;22.27;9.82;;;4.10;92.60;;;;;;5092212;28;20040;-55
2022/03/06 01:33:56;;;;;;;13.60;8.10;;;4.10;92.20;;;;;;5092302;28;20375;-50
2022/03/06 01:36:23;;;;;;;13.65;8.40;;;4.00;92.30;;;;;;5090461;28;20043;-53
2022/03/06 01:38:50;;;;;;;17.35;8.25;;;4.00;92.50;;;;;;5076553;28;20514;-49
2022/03/06 01:41:17;;;;;;;15.13;8.68;;;4.00;92.60;;;;;;5081790;28;20060;-50
2022/03/06 01:43:44;;;;;;;16.70;8.10;;;4.00;92.50;;;;;;5095327;28;20050;-52
2022/03/06 01:46:11;;;;;;;14.70;8.45;;;4.00;92.60;;;;;;5095832;28;20079;-50
2022/03/06 01:48:37;;;;;;;13.48;7.45;;;4.00;92.60;;;;;;5077764;28;20045;-48
2022/03/06 01:51:04;;;;;;;16.02;8.10;;;4.00;91.90;;;;;;5076270;28;20476;-51
2022/03/06 01:53:31;;;;;;;14.95;7.65;;;3.90;92.10;;;;;;5094413;28;20056;-50
2022/03/06 01:55:58;;;;;;;14.15;8.30;;;4.00;92.30;;;;;;5095626;28;20051;-44
2022/03/06 01:58:24;;;;;;;13.13;8.07;;;4.00;92.30;;;;;;5095610;28;20073;-46
2022/03/06 02:00:51;;;;;;;12.85;6.90;;;3.90;92.10;;;;;;5095496;28;20032;-46
2022/03/06 02:03:18;;;;;;;17.65;7.53;;;3.90;91.80;;;;;;5095747;28;20036;-49
2022/03/06 02:05:45;;;;;;;13.85;7.47;;;3.90;91.90;;;;;;5088776;28;20044;-46
2022/03/06 02:08:12;;;;;;;13.55;7.55;;;3.90;92.20;;;;;;5091067;28;20037;-48
2022/03/06 02:10:39;;;;;;;16.25;7.80;;;3.90;92.00;;;;;;5076005;28;20476;-48
2022/03/06 02:13:06;;;;;;;13.98;7.45;;;3.90;92.00;;;;;;5081306;28;20032;-46
2022/03/06 02:15:32;;;;;;;14.55;7.15;;;3.90;92.00;;;;;;5095376;28;20089;-47
2022/03/06 02:17:59;;;;;;;13.52;7.63;;;3.90;92.20;;;;;;5095382;28;20036;-46
2022/03/06 10:44:10;;;;;;;8.07;3.38;;;5.30;84.50;;;;;;5090689;27;20390;-50
2022/03/06 10:46:37;;;;;;;9.07;3.35;;;5.30;83.70;;;;;;5073876;28;20394;-51
2022/03/06 10:49:08;;;;;;;13.52;3.67;;;5.40;84.90;;;;;;5072536;28;20132;-48
2022/03/06 10:51:35;;;;;;;15.77;3.45;;;5.60;84.30;;;;;;5070512;28;20041;-52
2022/03/06 10:54:02;;;;;;;7.90;3.00;;;5.70;82.00;;;;;;5068601;28;20048;-50
2022/03/06 10:56:28;;;;;;;10.65;3.67;;;5.70;81.80;;;;;;5071420;28;20044;-50
2022/03/06 10:58:55;;;;;;;6.13;3.80;;;5.80;80.90;;;;;;5070207;28;20040;-51
2022/03/06 11:01:26;;;;;;;10.52;4.15;;;5.80;79.30;;;;;;5071013;28;20041;-54
2022/03/06 11:03:53;;;;;;;6.50;2.97;;;5.90;79.10;;;;;;5069896;28;20036;-50
2022/03/06 11:06:23;;;;;;;8.70;3.33;;;6.00;79.50;;;;;;5068360;28;20033;-45
2022/03/06 11:08:50;;;;;;;7.85;3.38;;;6.10;79.70;;;;;;5069402;28;20047;-52
2022/03/06 11:11:19;;;;;;;11.43;3.70;;;6.00;77.00;;;;;;5069220;28;20045;-50
2022/03/06 11:13:46;;;;;;;7.47;3.55;;;6.00;77.50;;;;;;5069546;28;20044;-50
2022/03/06 11:16:12;;;;;;;7.03;3.20;;;6.00;78.60;;;;;;5069385;28;20052;-55
2022/03/06 11:18:39;;;;;;;7.20;3.22;;;6.00;76.60;;;;;;5069575;28;20496;-53
2022/03/06 11:21:06;;;;;;;8.27;3.13;;;6.20;75.70;;;;;;5067982;28;20045;-50
2022/03/06 11:23:33;;;;;;;10.95;3.45;;;6.30;78.10;;;;;;5068962;28;20041;-51
2022/03/06 11:26:00;;;;;;;8.38;3.08;;;6.50;77.20;;;;;;5069295;28;20507;-44
2022/03/06 11:28:27;;;;;;;8.45;3.08;;;6.60;76.00;;;;;;5063049;28;20037;-46
2022/03/06 11:30:53;;;;;;;5.85;2.50;;;6.60;76.20;;;;;;5061198;28;20041;-47
2022/03/06 11:33:20;;;;;;;5.88;2.92;;;6.60;73.40;;;;;;5068950;28;20047;-46
2022/03/06 11:35:47;;;;;;;9.57;2.80;;;6.60;73.70;;;;;;5069100;28;20124;-46
2022/03/06 11:38:14;;;;;;;6.75;2.65;;;6.60;74.00;;;;;;5069299;28;20137;-46
2022/03/06 11:40:43;;;;;;;13.63;3.35;;;6.70;73.50;;;;;;5072115;28;20413;-44
2022/03/06 11:43:10;;;;;;;10.10;2.95;;;6.80;73.20;;;;;;5068604;28;20045;-51
2022/03/06 11:45:36;;;;;;;9.27;2.65;;;6.80;71.40;;;;;;5072724;28;20402;-53
2022/03/06 11:48:03;;;;;;;7.18;2.45;;;6.80;71.90;;;;;;5067476;28;20037;-48
2022/03/06 11:50:30;;;;;;;5.18;2.35;;;6.70;72.30;;;;;;5068537;28;20041;-48
2022/03/06 11:52:57;;;;;;;8.15;2.42;;;6.60;73.40;;;;;;5068772;28;20413;-52
2022/03/06 11:55:24;;;;;;;4.97;2.10;;;6.60;71.60;;;;;;5056357;28;20037;-52
2022/03/06 11:57:51;;;;;;;6.65;2.35;;;6.60;71.70;;;;;;5055519;28;20041;-51
2022/03/06 12:00:18;;;;;;;8.82;2.75;;;6.70;72.20;;;;;;5055279;28;20047;-51
2022/03/06 12:02:45;;;;;;;5.82;2.33;;;6.80;71.60;;;;;;5055124;28;20040;-52
2022/03/06 12:05:12;;;;;;;7.95;2.72;;;6.90;71.20;;;;;;5055284;28;20056;-48
2022/03/06 12:07:39;;;;;;;7.45;2.30;;;6.80;72.00;;;;;;5055531;28;20154;-53
2022/03/06 12:10:06;;;;;;;6.72;2.08;;;6.70;72.20;;;;;;5055270;28;20119;-52
2022/03/06 12:12:35;;;;;;;10.23;2.28;;;6.60;72.40;;;;;;5055624;28;20594;-54
2022/03/06 12:15:01;;;;;;;5.75;2.15;;;6.60;72.50;;;;;;5055494;28;20052;-51
2022/03/06 12:17:28;;;;;;;6.30;2.25;;;6.50;72.50;;;;;;5055452;28;20041;-49
2022/03/06 12:19:55;;;;;;;6.38;2.47;;;6.60;73.90;;;;;;5055242;28;20045;-53
2022/03/06 12:22:22;;;;;;;6.20;2.05;;;6.70;71.20;;;;;;5057038;28;20045;-49
2022/03/06 12:24:48;;;;;;;5.80;2.22;;;6.80;70.50;;;;;;5055303;28;20033;-50
2022/03/06 12:27:15;;;;;;;5.75;2.00;;;6.80;70.30;;;;;;5054088;28;20048;-53
2022/03/06 12:29:42;;;;;;;5.72;2.03;;;6.80;70.50;;;;;;5054981;28;20048;-53
2022/03/06 12:32:09;;;;;;;7.57;2.20;;;6.90;70.20;;;;;;5055173;28;20438;-50
2022/03/06 12:34:36;;;;;;;5.45;2.08;;;7.00;71.60;;;;;;5055067;28;20404;-53
2022/03/06 12:37:03;;;;;;;6.75;2.00;;;7.10;69.30;;;;;;5054891;28;20033;-55
2022/03/06 12:39:30;;;;;;;5.88;2.20;;;7.20;68.80;;;;;;5055182;28;20045;-45
2022/03/06 12:41:57;;;;;;;11.25;2.40;;;7.30;69.40;;;;;;5053478;28;20488;-49
2022/03/06 12:44:24;;;;;;;6.22;2.03;;;7.50;69.80;;;;;;5054865;28;20040;-50
2022/03/06 12:46:51;;;;;;;4.65;1.77;;;7.60;64.40;;;;;;5051697;28;20443;-52
2022/03/06 12:49:20;;;;;;;3.97;1.77;;;7.60;65.20;;;;;;5053560;28;20037;-51
2022/03/06 12:51:47;;;;;;;4.88;1.73;;;7.60;62.60;;;;;;5054833;28;20045;-49
2022/03/06 12:54:14;;;;;;;7.55;2.10;;;7.60;64.10;;;;;;5054767;28;20041;-49
2022/03/06 12:56:41;;;;;;;3.97;1.70;;;7.70;62.80;;;;;;5054616;28;20045;-52
2022/03/06 12:59:07;;;;;;;5.57;1.85;;;7.70;63.10;;;;;;5054731;28;20040;-49
2022/03/06 13:01:34;;;;;;;4.28;1.77;;;7.60;64.30;;;;;;5054633;28;20075;-47
2022/03/06 13:04:01;;;;;;;7.40;1.90;;;7.50;66.30;;;;;;5054404;28;20037;-46
2022/03/06 13:06:29;;;;;;;5.82;1.52;;;7.50;65.80;;;;;;5053411;28;20071;-50
2022/03/06 13:08:56;;;;;;;5.97;1.83;;;7.30;66.30;;;;;;5054391;28;20053;-50
2022/03/06 13:11:23;;;;;;;9.18;2.17;;;7.20;67.10;;;;;;5054415;28;20041;-52
2022/03/06 13:13:52;;;;;;;4.50;2.20;;;7.10;68.20;;;;;;5054282;28;20566;-50
2022/03/06 13:16:19;;;;;;;10.18;2.30;;;6.90;67.90;;;;;;5059131;28;20053;-51
2022/03/06 13:18:46;;;;;;;5.45;1.58;;;6.80;67.60;;;;;;5054169;28;20124;-48
2022/03/06 13:21:13;;;;;;;9.50;2.15;;;6.90;69.30;;;;;;5054252;28;20139;-49
2022/03/06 13:23:39;;;;;;;6.45;2.45;;;7.00;68.30;;;;;;5055013;28;20052;-50
2022/03/06 13:26:07;;;;;;;5.03;1.63;;;7.10;69.60;;;;;;5054330;28;20060;-55
2022/03/06 13:28:34;;;;;;;5.85;1.73;;;7.20;69.10;;;;;;5054112;28;20060;-50
2022/03/06 13:31:00;;;;;;;4.40;1.40;;;7.30;70.40;;;;;;5054047;28;20041;-50
2022/03/06 13:33:27;;;;;;;5.78;1.80;;;7.50;69.10;;;;;;5054198;28;20140;-49
2022/03/06 13:35:55;;;;;;;4.55;1.75;;;7.60;68.00;;;;;;5053826;28;20040;-51
2022/03/06 13:38:22;;;;;;;5.07;1.60;;;7.60;67.40;;;;;;5053955;28;20053;-52
2022/03/06 13:40:49;;;;;;;6.55;1.85;;;7.60;69.00;;;;;;5053517;28;20045;-49
2022/03/06 13:43:16;;;;;;;6.47;2.00;;;7.40;69.20;;;;;;5053472;28;20132;-46
2022/03/06 13:45:43;;;;;;;6.03;1.50;;;7.40;68.60;;;;;;5053854;28;20133;-51
2022/03/06 13:48:10;;;;;;;8.60;1.73;;;7.30;69.20;;;;;;5052526;28;20044;-49
2022/03/06 13:50:37;;;;;;;5.57;1.52;;;7.30;67.90;;;;;;5052150;28;20029;-53
2022/03/06 13:53:04;;;;;;;7.28;1.80;;;7.40;67.40;;;;;;5053683;28;20045;-50
2022/03/06 13:55:31;;;;;;;7.03;2.15;;;7.40;67.50;;;;;;5053585;28;20124;-46
2022/03/06 13:57:58;;;;;;;5.85;2.05;;;7.40;68.30;;;;;;5053449;28;20484;-54
2022/03/06 14:00:25;;;;;;;5.07;1.52;;;7.50;68.70;;;;;;5053494;28;20041;-46
2022/03/06 14:02:52;;;;;;;5.85;2.40;;;7.50;68.50;;;;;;5052034;28;20125;-47
2022/03/06 14:05:19;;;;;;;5.60;1.90;;;7.60;69.30;;;;;;5053315;28;20036;-52
2022/03/06 14:07:46;;;;;;;6.45;1.75;;;7.70;68.90;;;;;;5053284;28;20037;-48
2022/03/06 14:10:13;;;;;;;4.55;1.75;;;7.60;69.20;;;;;;5053212;28;20037;-50
2022/03/06 14:12:39;;;;;;;6.25;1.90;;;7.40;69.20;;;;;;5053179;28;20048;-48
2022/03/06 14:15:06;;;;;;;6.38;2.55;;;7.30;69.30;;;;;;5057497;28;20036;-51
2022/03/06 14:17:33;;;;;;;6.28;2.15;;;7.20;70.30;;;;;;5046615;28;20037;-45
2022/03/06 14:20:00;;;;;;;6.90;1.90;;;7.10;70.50;;;;;;5053099;28;20055;-47
2022/03/06 14:22:26;;;;;;;8.00;2.22;;;7.10;70.50;;;;;;5053191;28;20119;-45
2022/03/06 14:24:53;;;;;;;7.50;1.90;;;7.00;70.40;;;;;;5052344;28;20043;-50
2022/03/06 14:27:20;;;;;;;5.13;2.05;;;7.00;71.20;;;;;;5052993;28;20040;-50
2022/03/06 14:29:47;;;;;;;8.45;2.20;;;7.10;71.20;;;;;;5052938;28;20484;-49
2022/03/06 14:32:14;;;;;;;8.48;2.20;;;7.20;71.40;;;;;;5057046;28;20482;-52
2022/03/06 14:34:41;;;;;;;6.03;2.17;;;7.30;70.50;;;;;;5053708;28;20554;-48
2022/03/06 14:37:07;;;;;;;7.72;2.42;;;7.40;69.90;;;;;;5052764;28;20052;-48
2022/03/06 14:39:35;;;;;;;10.65;2.38;;;7.40;69.90;;;;;;5052751;28;20488;-53
2022/03/06 14:42:02;;;;;;;4.70;2.05;;;7.40;69.60;;;;;;5051489;28;20060;-46
2022/03/06 14:44:29;;;;;;;5.90;2.05;;;7.40;68.80;;;;;;5052935;28;20040;-50
2022/03/06 14:46:56;;;;;;;6.60;2.20;;;7.40;69.90;;;;;;5052176;28;20071;-49
2022/03/06 14:49:23;;;;;;;5.65;2.05;;;7.30;70.00;;;;;;5052731;28;20449;-48
2022/03/06 14:51:50;;;;;;;5.75;1.75;;;7.30;71.10;;;;;;5053100;28;20049;-52
2022/03/06 14:54:22;;;;;;;5.72;1.98;;;7.40;71.40;;;;;;5053004;28;20044;-50
2022/03/06 14:56:50;;;;;;;7.25;1.85;;;7.50;70.70;;;;;;5052936;28;20041;-49
2022/03/06 14:59:16;;;;;;;6.13;1.85;;;7.40;71.20;;;;;;5052815;28;20045;-49
2022/03/06 15:01:44;;;;;;;6.10;2.00;;;7.40;71.20;;;;;;5052745;28;20041;-50
2022/03/06 15:04:11;;;;;;;6.32;1.60;;;7.30;72.00;;;;;;5052588;28;20045;-50
2022/03/06 15:06:38;;;;;;;3.67;1.40;;;7.30;72.40;;;;;;5052681;28;20044;-45
2022/03/06 15:09:05;;;;;;;5.50;1.83;;;7.30;73.00;;;;;;5052675;28;20056;-50
2022/03/06 15:11:32;;;;;;;6.72;1.95;;;7.30;73.20;;;;;;5052741;28;20046;-49
2022/03/06 15:13:58;;;;;;;7.80;1.90;;;7.20;73.80;;;;;;5057416;28;20045;-50
2022/03/06 15:16:26;;;;;;;8.20;2.05;;;7.10;73.80;;;;;;5052583;28;20123;-44
2022/03/06 15:18:53;;;;;;;8.52;1.90;;;7.10;74.80;;;;;;5057142;28;20056;-52
2022/03/06 15:21:20;;;;;;;7.75;1.90;;;7.00;74.10;;;;;;5051384;28;20041;-51
2022/03/06 15:23:47;;;;;;;6.28;1.80;;;7.00;74.30;;;;;;5052452;28;20395;-53
2022/03/06 15:26:13;;;;;;;8.10;2.30;;;7.00;74.50;;;;;;5052552;28;20120;-53
2022/03/06 15:28:40;;;;;;;8.10;1.83;;;6.90;74.90;;;;;;5052571;28;20399;-50
2022/03/06 15:31:08;;;;;;;7.47;1.70;;;6.90;75.30;;;;;;5056528;28;20063;-49
2022/03/06 15:33:35;;;;;;;8.48;2.25;;;7.00;74.90;;;;;;5056274;28;20446;-52
2022/03/06 15:36:02;;;;;;;9.15;1.80;;;7.00;72.70;;;;;;5056262;28;20051;-47
2022/03/06 15:38:29;;;;;;;6.15;1.98;;;7.00;73.70;;;;;;5056356;28;20045;-47
2022/03/06 15:40:55;;;;;;;6.47;1.90;;;7.00;73.80;;;;;;5056364;28;20044;-45
2022/03/06 15:43:22;;;;;;;7.85;1.90;;;7.10;73.40;;;;;;5055753;28;20049;-53
2022/03/06 15:45:49;;;;;;;7.60;2.25;;;7.20;74.40;;;;;;5056276;28;20033;-53
2022/03/06 15:48:18;;;;;;;5.28;2.05;;;7.10;72.30;;;;;;5057083;28;20037;-53
2022/03/06 15:50:46;;;;;;;4.30;1.70;;;7.10;72.80;;;;;;5054759;28;20419;-53
2022/03/06 15:53:13;;;;;;;6.38;2.10;;;7.10;73.00;;;;;;5056026;28;20059;-48
2022/03/06 15:55:40;;;;;;;12.32;2.15;;;7.00;72.10;;;;;;5055829;28;20033;-51
2022/03/06 15:58:07;;;;;;;8.38;2.10;;;6.90;72.10;;;;;;5055825;28;20044;-52
2022/03/06 16:00:33;;;;;;;10.45;2.25;;;6.80;72.90;;;;;;5055696;28;20037;-49
2022/03/06 16:03:00;;;;;;;8.55;2.00;;;6.70;73.50;;;;;;5055844;28;20044;-52
2022/03/06 16:05:28;;;;;;;6.47;1.92;;;6.80;73.70;;;;;;5053147;28;20072;-51
2022/03/06 16:07:55;;;;;;;8.30;1.98;;;6.80;73.60;;;;;;5055652;28;20045;-53
2022/03/06 16:10:22;;;;;;;7.03;1.90;;;6.90;74.10;;;;;;5054247;28;20041;-53
2022/03/06 16:12:48;;;;;;;3.92;1.70;;;7.00;74.50;;;;;;5055427;28;20041;-51
2022/03/06 16:15:15;;;;;;;4.30;1.63;;;6.90;74.20;;;;;;5055390;28;20059;-49
2022/03/06 16:17:42;;;;;;;5.20;2.00;;;6.80;75.30;;;;;;5056194;28;20049;-51
2022/03/06 16:20:10;;;;;;;5.03;1.55;;;6.80;75.40;;;;;;5059910;28;20041;-50
2022/03/06 16:22:37;;;;;;;4.93;2.05;;;6.70;75.10;;;;;;5055451;28;20041;-50
2022/03/06 16:25:03;;;;;;;5.95;1.77;;;6.70;74.80;;;;;;5057415;28;20044;-54
2022/03/06 16:27:30;;;;;;;5.50;1.50;;;6.70;75.20;;;;;;5054329;28;20037;-52
2022/03/06 16:29:57;;;;;;;6.03;1.70;;;6.70;75.60;;;;;;5054776;28;20373;-48
2022/03/06 16:32:24;;;;;;;5.65;1.70;;;6.70;75.50;;;;;;5055240;28;20041;-54
2022/03/06 16:34:50;;;;;;;5.22;1.52;;;6.80;76.60;;;;;;5055428;28;20044;-51
2022/03/06 16:37:29;;;;;;;5.65;2.00;;;6.90;75.80;;;;;;5055118;28;20102;-49
2022/03/06 16:39:58;;;;;;;5.68;1.70;;;6.90;76.30;;;;;;5054816;28;20056;-52
2022/03/06 16:42:25;;;;;;;6.50;1.90;;;6.90;76.10;;;;;;5054622;28;20065;-48
2022/03/06 16:44:54;;;;;;;6.00;1.65;;;6.90;76.50;;;;;;5056221;28;20511;-50
2022/03/06 16:47:21;;;;;;;5.97;1.75;;;6.90;76.30;;;;;;5055188;28;20033;-47
2022/03/06 16:49:47;;;;;;;6.45;2.13;;;6.70;76.60;;;;;;5054917;28;20095;-53
2022/03/06 16:52:14;;;;;;;6.85;2.13;;;6.70;77.50;;;;;;5054681;28;20150;-49
2022/03/06 16:54:44;;;;;;;7.72;1.70;;;6.60;77.90;;;;;;5054793;28;20049;-48
2022/03/06 16:57:11;;;;;;;7.05;2.03;;;6.60;78.20;;;;;;5054732;28;20045;-48
2022/03/06 16:59:37;;;;;;;4.43;2.10;;;6.50;78.20;;;;;;5054553;28;20102;-49
2022/03/06 17:02:04;;;;;;;5.65;2.00;;;6.50;78.80;;;;;;5053572;28;20522;-52
2022/03/06 17:04:31;;;;;;;5.38;1.80;;;6.50;78.30;;;;;;5057077;28;20408;-49
2022/03/06 17:06:58;;;;;;;6.82;1.63;;;6.50;78.20;;;;;;5054417;28;20127;-53
2022/03/06 17:09:25;;;;;;;5.47;1.70;;;6.50;78.20;;;;;;5054263;28;20033;-52
2022/03/06 17:11:51;;;;;;;6.28;1.60;;;6.50;78.50;;;;;;5054446;28;20119;-55
2022/03/06 17:14:22;;;;;;;11.00;1.70;;;6.40;78.70;;;;;;5054632;28;20106;-54
2022/03/06 17:16:49;;;;;;;6.28;1.80;;;6.40;78.70;;;;;;5054582;28;20411;-53
2022/03/06 17:19:15;;;;;;;6.95;2.58;;;6.30;79.20;;;;;;5053048;28;20052;-52
2022/03/06 17:21:42;;;;;;;7.05;2.17;;;6.30;79.80;;;;;;5054319;28;20051;-50
2022/03/06 17:24:09;;;;;;;5.70;2.28;;;6.30;80.10;;;;;;5054027;28;20037;-50
2022/03/06 17:26:36;;;;;;;8.15;2.30;;;6.30;80.90;;;;;;5054184;28;20120;-50
2022/03/06 17:29:03;;;;;;;9.55;3.45;;;6.20;81.10;;;;;;5053987;28;20041;-52
2022/03/06 17:31:30;;;;;;;9.73;3.30;;;6.10;81.70;;;;;;5052813;28;20048;-46
2022/03/06 17:33:57;;;;;;;5.60;2.10;;;6.10;81.90;;;;;;5055873;28;20135;-51
2022/03/06 17:36:24;;;;;;;9.32;2.78;;;6.00;82.50;;;;;;5058233;28;20052;-54
2022/03/06 17:38:51;;;;;;;6.63;2.85;;;6.00;82.70;;;;;;5053762;28;20056;-51
2022/03/06 17:41:17;;;;;;;8.02;2.05;;;6.00;83.00;;;;;;5053873;28;20056;-51
2022/03/06 17:43:50;;;;;;;7.72;1.70;;;6.00;82.60;;;;;;5052952;28;20403;-50
2022/03/06 17:46:22;;;;;;;5.68;2.05;;;5.90;82.70;;;;;;5053739;28;20514;-51
2022/03/06 17:48:54;;;;;;;5.32;2.10;;;5.90;82.80;;;;;;5053662;28;20045;-55
2022/03/06 17:51:21;;;;;;;9.27;2.08;;;5.90;83.20;;;;;;5053472;28;20488;-50
2022/03/06 17:53:47;;;;;;;8.98;2.58;;;5.90;83.70;;;;;;5035622;28;20404;-49
2022/03/06 17:56:14;;;;;;;5.72;1.95;;;5.90;83.80;;;;;;5053805;28;20033;-52
2022/03/06 17:58:41;;;;;;;8.40;2.00;;;5.90;84.00;;;;;;5053524;28;20064;-54
2022/03/06 18:01:08;;;;;;;9.48;2.33;;;5.90;83.90;;;;;;5053705;28;20037;-48
2022/03/06 18:03:35;;;;;;;8.55;2.20;;;5.90;84.20;;;;;;5053472;28;20120;-51
2022/03/06 18:06:02;;;;;;;7.07;2.05;;;5.80;84.30;;;;;;5053455;28;20040;-50
2022/03/06 18:08:33;;;;;;;10.75;2.45;;;5.80;84.20;;;;;;5053520;28;20041;-49
2022/03/06 18:11:00;;;;;;;7.60;2.42;;;5.80;84.50;;;;;;5053521;28;20036;-47
2022/03/06 18:13:27;;;;;;;6.15;2.33;;;5.80;84.60;;;;;;5056235;28;20103;-50
2022/03/06 18:15:55;;;;;;;5.82;2.10;;;5.70;84.50;;;;;;5053536;28;20048;-53
2022/03/06 18:18:34;;;;;;;8.38;2.00;;;5.70;84.90;;;;;;5053480;28;20150;-53
2022/03/06 18:21:02;;;;;;;8.65;2.20;;;5.70;84.70;;;;;;5052703;28;20089;-49
2022/03/06 18:23:29;;;;;;;10.77;2.60;;;5.70;85.20;;;;;;5053083;28;20055;-48
2022/03/06 18:25:56;;;;;;;7.72;3.45;;;5.70;85.30;;;;;;5055278;28;20048;-46
2022/03/06 18:28:23;;;;;;;10.90;2.45;;;5.70;85.50;;;;;;5053066;28;20041;-46
2022/03/06 18:30:50;;;;;;;10.77;2.78;;;5.70;84.70;;;;;;5056077;28;20040;-50
2022/03/06 18:33:17;;;;;;;9.25;2.90;;;5.70;84.90;;;;;;5053224;28;20099;-53
2022/03/06 18:35:44;;;;;;;7.03;2.83;;;5.70;85.00;;;;;;5052900;28;20048;-45
2022/03/06 18:38:10;;;;;;;7.78;3.20;;;5.70;84.50;;;;;;5054042;28;20045;-51
2022/03/06 18:40:37;;;;;;;5.65;2.85;;;5.70;84.70;;;;;;5052840;28;20118;-50
2022/03/06 18:43:04;;;;;;;6.13;2.17;;;5.70;84.60;;;;;;5054626;28;20461;-46
2022/03/06 18:45:33;;;;;;;8.73;2.40;;;5.70;84.30;;;;;;5052806;28;20069;-52
2022/03/06 18:48:00;;;;;;;9.05;2.10;;;5.70;84.40;;;;;;5052905;28;20041;-54
2022/03/06 18:50:28;;;;;;;6.65;2.08;;;5.70;84.30;;;;;;5052873;28;20098;-53
2022/03/06 18:52:55;;;;;;;5.35;2.20;;;5.70;84.30;;;;;;5052913;28;20039;-53
2022/03/06 18:55:22;;;;;;;7.15;1.90;;;5.70;84.40;;;;;;5052791;28;20067;-51
2022/03/06 18:57:50;;;;;;;10.68;3.88;;;5.70;84.40;;;;;;5052812;28;20077;-53
2022/03/06 19:00:17;;;;;;;6.72;2.70;;;5.70;84.20;;;;;;5052667;28;20098;-47
2022/03/06 19:02:44;;;;;;;9.52;2.72;;;5.70;84.30;;;;;;5052663;28;20487;-45
2022/03/06 19:05:11;;;;;;;7.10;2.75;;;5.60;84.40;;;;;;5054805;28;20463;-52
2022/03/06 19:07:38;;;;;;;7.90;1.88;;;5.70;83.80;;;;;;5056796;28;20124;-49
2022/03/06 19:10:05;;;;;;;5.82;2.20;;;5.60;82.90;;;;;;5056624;28;20043;-50
2022/03/06 19:12:32;;;;;;;6.95;2.25;;;5.60;83.20;;;;;;5061979;28;20037;-52
2022/03/06 19:14:59;;;;;;;6.95;2.20;;;5.60;83.90;;;;;;5056808;28;20403;-52
2022/03/06 19:17:26;;;;;;;4.75;2.13;;;5.60;83.20;;;;;;5056751;28;20045;-51
2022/03/06 19:19:53;;;;;;;9.05;2.38;;;5.60;83.20;;;;;;5056762;28;20052;-48
2022/03/06 19:22:19;;;;;;;7.03;2.70;;;5.60;83.60;;;;;;5060079;28;20127;-50
2022/03/06 19:24:46;;;;;;;7.50;2.28;;;5.60;83.80;;;;;;5056616;28;20045;-49
2022/03/06 19:27:13;;;;;;;7.70;2.85;;;5.60;83.80;;;;;;5056364;28;20048;-49
2022/03/06 19:29:40;;;;;;;7.95;3.55;;;5.60;83.70;;;;;;5056322;28;20399;-49
2022/03/06 19:32:07;;;;;;;9.05;3.55;;;5.60;84.10;;;;;;5056266;28;20041;-49
2022/03/06 19:34:36;;;;;;;5.78;3.00;;;5.50;84.50;;;;;;5055105;28;20064;-51
2022/03/06 19:37:03;;;;;;;4.40;1.98;;;5.40;84.70;;;;;;5057036;28;20071;-52
2022/03/06 19:39:30;;;;;;;7.05;2.83;;;5.40;85.30;;;;;;5055720;28;20048;-49
2022/03/06 19:41:57;;;;;;;14.20;5.18;;;5.30;85.90;;;;;;5056010;28;20511;-51
2022/03/06 19:44:24;;;;;;;6.93;2.60;;;5.20;86.10;;;;;;5060748;28;20056;-48
2022/03/06 19:46:51;;;;;;;11.40;4.13;;;5.20;86.10;;;;;;5055847;28;20045;-48
2022/03/06 19:49:18;;;;;;;11.75;4.07;;;5.20;86.40;;;;;;5056165;28;20037;-52
2022/03/06 19:51:45;;;;;;;10.27;2.53;;;5.20;86.40;;;;;;5056032;28;20029;-49
2022/03/06 19:54:19;;;;;;;6.30;2.30;;;5.20;86.60;;;;;;5056094;28;20131;-51
2022/03/06 19:56:47;;;;;;;8.57;2.28;;;5.20;86.90;;;;;;5055881;28;20633;-53
2022/03/06 19:59:14;;;;;;;5.43;2.17;;;5.20;87.30;;;;;;5056443;28;20048;-48
2022/03/06 20:01:41;;;;;;;7.20;2.30;;;5.20;87.00;;;;;;5059803;28;20041;-51
2022/03/06 20:04:08;;;;;;;5.20;1.77;;;5.20;86.80;;;;;;5055979;28;20033;-48
2022/03/06 20:06:35;;;;;;;8.50;3.10;;;5.20;87.00;;;;;;5055667;28;20480;-53
2022/03/06 20:09:02;;;;;;;12.27;5.50;;;5.20;87.20;;;;;;5055531;28;20044;-48
2022/03/06 20:11:29;;;;;;;6.47;2.47;;;5.20;87.10;;;;;;5055607;28;20041;-49
2022/03/06 20:13:56;;;;;;;6.57;2.60;;;5.20;87.00;;;;;;5055609;28;20037;-50
2022/03/06 20:16:23;;;;;;;7.85;2.55;;;5.20;86.90;;;;;;5054977;28;20045;-55
2022/03/06 20:18:51;;;;;;;9.13;2.22;;;5.20;87.10;;;;;;5055329;28;20047;-52
2022/03/06 20:21:18;;;;;;;6.97;2.22;;;5.20;87.30;;;;;;5059006;28;20507;-54
2022/03/06 20:23:47;;;;;;;7.97;4.40;;;5.30;87.30;;;;;;5055467;28;20489;-52
2022/03/06 20:26:14;;;;;;;9.77;2.00;;;5.30;87.60;;;;;;5059002;28;20545;-50
2022/03/06 20:28:41;;;;;;;7.15;2.10;;;5.30;87.60;;;;;;5055373;28;20044;-45
2022/03/06 20:31:11;;;;;;;9.45;3.50;;;5.20;87.90;;;;;;5055390;28;20037;-52
2022/03/06 20:33:38;;;;;;;5.88;2.30;;;5.20;88.40;;;;;;5055114;28;20472;-50
2022/03/06 20:36:05;;;;;;;7.15;2.53;;;5.20;88.40;;;;;;5055179;28;20037;-52
2022/03/06 20:38:32;;;;;;;7.30;3.78;;;5.20;88.40;;;;;;5055108;28;20041;-53
2022/03/06 20:40:59;;;;;;;8.43;2.67;;;5.20;88.50;;;;;;5054836;28;20047;-52
2022/03/06 20:43:25;;;;;;;7.93;3.00;;;5.10;88.40;;;;;;5058859;28;20438;-52
2022/03/06 20:45:54;;;;;;;8.65;3.25;;;5.20;88.60;;;;;;5054959;28;20041;-52
2022/03/06 20:48:22;;;;;;;21.67;8.18;;;5.20;88.50;;;;;;5054384;28;20041;-48
2022/03/06 20:50:48;;;;;;;6.72;2.78;;;5.20;88.10;;;;;;5060107;28;20044;-49
2022/03/06 20:53:15;;;;;;;5.65;2.05;;;5.20;88.10;;;;;;5055073;28;20048;-49
2022/03/06 20:55:44;;;;;;;11.50;3.45;;;5.20;88.10;;;;;;5054852;28;20048;-51
2022/03/06 20:58:13;;;;;;;11.13;2.75;;;5.20;88.30;;;;;;5054897;28;20118;-49
2022/03/06 21:00:40;;;;;;;10.68;2.65;;;5.20;88.60;;;;;;5054581;28;20431;-52
2022/03/06 21:03:07;;;;;;;9.00;3.15;;;5.20;88.80;;;;;;5054707;28;20369;-49
2022/03/06 21:05:34;;;;;;;8.18;3.40;;;5.10;89.30;;;;;;5054639;28;20472;-47
2022/03/06 21:08:01;;;;;;;10.05;2.65;;;5.20;89.40;;;;;;5054512;28;20037;-53
2022/03/06 21:10:28;;;;;;;7.50;2.70;;;5.20;89.10;;;;;;5054376;28;20037;-49
2022/03/06 21:12:55;;;;;;;9.27;2.47;;;5.20;89.30;;;;;;5059301;28;20024;-53
2022/03/06 21:15:23;;;;;;;11.63;2.50;;;5.20;89.00;;;;;;5053208;28;20049;-48